Calvin, North Carolina
Current Conditions -  °F | °C
As of 11:55 AM on Thursday 30 Oct 2014 (Local Time) from KMRN Reporting Station
Clear Clear  
Wind Chill: 60°   Ceiling: Unl
Heat Index: 60°   Visibility: 10mi
Dew Point: 36°   Wind: 3mph
Humidity: 41%   Direction: 140°SE
Pressure: 30.12"   Gusts: NA
Location:  35.7567°N, 81.7518°W
Report Text: KMRN 301555Z AUTO 14003KT 10SM CLR 15/02 A3012 RMK AO2 T01540023
Loading
Personal Weather Stations






























Interactive Weather Map
Tropical Storm Tracking
New forecast layout! Learn more

10-Day Weather Forecast

Advertisements
Track Severe Weather on mobile